Time,TemperatureF,DewpointF,PressureIn,WindDirection,WindDirectionDegrees,WindSpeedMPH,WindSpeedGustMPH,Humidity,HourlyPrecipIn,Conditions,Clouds,dailyrainin,SolarRadiationWatts/m^2,SoftwareType,DateUTC
2013-10-20 00:00:00,37.3,34.4,29.71,SSE,168,0.0,1.0,89,0.00,,,0.00,0,Wunderground v.1.15,2013-10-20 04:00:00,
2013-10-20 00:01:00,37.3,34.4,29.71,SSE,168,0.0,1.0,89,0.00,,,0.00,0,Wunderground v.1.15,2013-10-20 04:01:00,
2013-10-20 00:02:00,37.3,34.4,29.71,SSE,168,0.0,1.0,89,0.00,,,0.00,0,Wunderground v.1.15,2013-10-20 04:02:00,
2013-10-20 00:03:00,37.3,34.4,29.72,SSE,168,0.0,1.0,89,0.00,,,0.00,0,Wunderground v.1.15,2013-10-20 04:03:00,
2013-10-20 00:04:00,37.3,34.6,29.71,SSE,168,0.0,1.0,90,0.00,,,0.00,0,Wunderground v.1.15,2013-10-20 04:04:00,
2013-10-20 00:10:00,37.4,34.7,29.71,SSE,168,0.0,1.0,90,0.00,,,0.00,0,Wunderground v.1.15,2013-10-20 04:10:00,
2013-10-20 00:12:00,37.5,34.8,29.71,SSE,168,0.0,1.0,90,0.00,,,0.00,0,Wunderground v.1.15,2013-10-20 04:12:00,
2013-10-20 00:17:00,37.6,35.2,29.71,SSE,168,0.0,1.0,91,0.00,,,0.00,0,Wunderground v.1.15,2013-10-20 04:17:00,
2013-10-20 00:21:00,37.8,35.4,29.71,SSE,168,0.0,1.0,91,0.00,,,0.00,0,Wunderground v.1.15,2013-10-20 04:21:00,
2013-10-20 00:26:00,38.2,36.1,29.71,SSE,168,0.0,1.0,92,0.00,,,0.00,0,Wunderground v.1.15,2013-10-20 04:26:00,
2013-10-20 00:32:00,38.8,36.9,29.72,SSE,168,0.0,1.0,93,0.00,,,0.00,0,Wunderground v.1.15,2013-10-20 04:32:00,
2013-10-20 00:37:00,39.2,37.3,29.72,SSE,168,0.0,1.0,93,0.00,,,0.00,0,Wunderground v.1.15,2013-10-20 04:37:00,
2013-10-20 00:43:00,39.7,37.8,29.71,South,177,0.0,1.0,93,0.00,,,0.00,0,Wunderground v.1.15,2013-10-20 04:43:00,
2013-10-20 00:48:00,40.1,38.2,29.72,South,177,0.0,1.0,93,0.00,,,0.00,0,Wunderground v.1.15,2013-10-20 04:48:00,
2013-10-20 00:54:00,40.4,38.5,29.72,South,186,0.0,4.0,93,0.00,,,0.00,0,Wunderground v.1.15,2013-10-20 04:54:00,
2013-10-20 01:00:00,40.6,38.5,29.72,South,177,2.0,2.0,92,0.00,,,0.00,0,Wunderground v.1.15,2013-10-20 05:00:00,
2013-10-20 01:05:00,40.7,38.6,29.72,South,182,1.0,5.0,92,0.00,,,0.00,0,Wunderground v.1.15,2013-10-20 05:05:00,
2013-10-20 01:11:00,40.9,38.5,29.72,South,184,2.0,4.0,91,0.00,,,0.00,0,Wunderground v.1.15,2013-10-20 05:11:00,
2013-10-20 01:16:00,41.1,39.0,29.72,SE,146,3.0,8.0,92,0.00,,,0.00,0,Wunderground v.1.15,2013-10-20 05:16:00,
2013-10-20 01:22:00,41.3,39.2,29.72,South,179,2.0,3.0,92,0.00,,,0.01,0,Wunderground v.1.15,2013-10-20 05:22:00,
2013-10-20 01:28:00,41.4,39.3,29.71,South,179,1.0,3.0,92,0.00,,,0.01,0,Wunderground v.1.15,2013-10-20 05:28:00,
2013-10-20 01:33:00,41.5,39.3,29.71,South,179,0.0,1.0,92,0.00,,,0.01,0,Wunderground v.1.15,2013-10-20 05:33:00,
2013-10-20 01:39:00,41.4,39.3,29.72,South,179,0.0,1.0,92,0.00,,,0.01,0,Wunderground v.1.15,2013-10-20 05:39:00,
2013-10-20 01:44:00,41.3,39.4,29.72,South,179,0.0,1.0,93,0.00,,,0.01,0,Wunderground v.1.15,2013-10-20 05:44:00,
2013-10-20 01:50:00,41.2,39.3,29.72,South,179,0.0,1.0,93,0.00,,,0.01,0,Wunderground v.1.15,2013-10-20 05:50:00,
2013-10-20 01:55:00,41.1,39.2,29.72,South,179,0.0,1.0,93,0.00,,,0.01,0,Wunderground v.1.15,2013-10-20 05:55:00,
2013-10-20 02:01:00,40.9,39.0,29.72,South,179,0.0,1.0,93,0.00,,,0.01,0,Wunderground v.1.15,2013-10-20 06:01:00,
2013-10-20 02:07:00,40.8,38.9,29.72,South,179,0.0,1.0,93,0.00,,,0.01,0,Wunderground v.1.15,2013-10-20 06:07:00,
2013-10-20 02:12:00,40.7,38.8,29.72,South,179,0.0,1.0,93,0.00,,,0.01,0,Wunderground v.1.15,2013-10-20 06:12:00,
2013-10-20 02:18:00,40.6,38.7,29.72,South,179,0.0,1.0,93,0.00,,,0.01,0,Wunderground v.1.15,2013-10-20 06:18:00,
2013-10-20 02:24:00,40.5,38.6,29.71,South,179,0.0,1.0,93,0.00,,,0.01,0,Wunderground v.1.15,2013-10-20 06:24:00,
2013-10-20 02:29:00,40.5,38.9,29.72,South,179,0.0,1.0,94,0.00,,,0.01,0,Wunderground v.1.15,2013-10-20 06:29:00,
2013-10-20 02:35:00,40.3,38.7,29.72,South,179,0.0,1.0,94,0.00,,,0.01,0,Wunderground v.1.15,2013-10-20 06:35:00,
2013-10-20 02:41:00,40.1,38.5,29.72,South,179,0.0,1.0,94,0.00,,,0.01,0,Wunderground v.1.15,2013-10-20 06:41:00,
2013-10-20 02:47:00,40.0,38.4,29.72,South,179,0.0,1.0,94,0.00,,,0.01,0,Wunderground v.1.15,2013-10-20 06:47:00,
2013-10-20 02:53:00,39.7,38.1,29.72,South,179,0.0,1.0,94,0.00,,,0.01,0,Wunderground v.1.15,2013-10-20 06:53:00,
2013-10-20 02:59:00,39.6,38.0,29.72,South,179,0.0,1.0,94,0.00,,,0.01,0,Wunderground v.1.15,2013-10-20 06:59:00,
2013-10-20 03:05:00,39.5,37.9,29.72,South,179,0.0,1.0,94,0.00,,,0.01,0,Wunderground v.1.15,2013-10-20 07:05:00,
2013-10-20 03:11:00,39.5,37.9,29.72,South,179,0.0,1.0,94,0.00,,,0.01,0,Wunderground v.1.15,2013-10-20 07:11:00,
2013-10-20 03:17:00,39.4,37.8,29.72,South,179,0.0,1.0,94,0.00,,,0.01,0,Wunderground v.1.15,2013-10-20 07:17:00,
2013-10-20 03:22:00,39.3,37.7,29.72,South,179,0.0,1.0,94,0.00,,,0.01,0,Wunderground v.1.15,2013-10-20 07:22:00,
2013-10-20 03:28:00,39.2,37.6,29.72,South,179,0.0,1.0,94,0.00,,,0.01,0,Wunderground v.1.15,2013-10-20 07:28:00,
2013-10-20 03:34:00,39.1,37.5,29.72,South,179,0.0,1.0,94,0.00,,,0.01,0,Wunderground v.1.15,2013-10-20 07:34:00,
2013-10-20 03:40:00,38.8,37.2,29.72,South,179,0.0,1.0,94,0.00,,,0.01,0,Wunderground v.1.15,2013-10-20 07:40:00,
2013-10-20 03:46:00,38.7,37.1,29.72,South,179,0.0,1.0,94,0.00,,,0.01,0,Wunderground v.1.15,2013-10-20 07:46:00,
2013-10-20 03:52:00,38.5,36.9,29.73,South,179,0.0,1.0,94,0.00,,,0.01,0,Wunderground v.1.15,2013-10-20 07:52:00,
2013-10-20 03:58:00,38.3,36.7,29.73,South,179,0.0,1.0,94,0.00,,,0.01,0,Wunderground v.1.15,2013-10-20 07:58:00,
2013-10-20 04:03:00,38.3,37.0,29.73,South,179,0.0,1.0,95,0.00,,,0.01,0,Wunderground v.1.15,2013-10-20 08:03:00,
2013-10-20 04:09:00,38.3,37.0,29.73,South,179,0.0,1.0,95,0.00,,,0.01,0,Wunderground v.1.15,2013-10-20 08:09:00,
2013-10-20 04:15:00,38.4,37.1,29.73,South,179,0.0,1.0,95,0.00,,,0.01,0,Wunderground v.1.15,2013-10-20 08:15:00,
2013-10-20 04:21:00,38.5,37.2,29.73,South,179,0.0,1.0,95,0.00,,,0.01,0,Wunderground v.1.15,2013-10-20 08:21:00,
2013-10-20 04:27:00,38.6,37.3,29.73,South,179,0.0,1.0,95,0.00,,,0.01,0,Wunderground v.1.15,2013-10-20 08:27:00,
2013-10-20 04:33:00,38.6,37.3,29.73,South,179,0.0,1.0,95,0.00,,,0.01,0,Wunderground v.1.15,2013-10-20 08:33:00,
2013-10-20 04:38:00,38.6,37.3,29.73,South,179,0.0,1.0,95,0.00,,,0.01,0,Wunderground v.1.15,2013-10-20 08:38:00,
2013-10-20 04:44:00,38.5,37.2,29.73,South,179,0.0,1.0,95,0.00,,,0.01,0,Wunderground v.1.15,2013-10-20 08:44:00,
2013-10-20 04:50:00,38.3,37.0,29.73,South,179,0.0,1.0,95,0.00,,,0.01,0,Wunderground v.1.15,2013-10-20 08:50:00,
2013-10-20 04:56:00,38.1,36.8,29.73,South,179,0.0,1.0,95,0.00,,,0.01,0,Wunderground v.1.15,2013-10-20 08:56:00,
2013-10-20 05:02:00,37.9,36.6,29.73,South,179,0.0,1.0,95,0.00,,,0.01,0,Wunderground v.1.15,2013-10-20 09:02:00,
2013-10-20 05:07:00,37.7,36.4,29.73,South,179,0.0,1.0,95,0.00,,,0.01,0,Wunderground v.1.15,2013-10-20 09:07:00,
2013-10-20 05:12:00,37.6,36.3,29.73,South,179,0.0,1.0,95,0.00,,,0.01,0,Wunderground v.1.15,2013-10-20 09:12:00,
2013-10-20 05:18:00,37.4,36.1,29.74,South,179,0.0,1.0,95,0.00,,,0.01,0,Wunderground v.1.15,2013-10-20 09:18:00,
2013-10-20 05:24:00,37.3,36.0,29.74,South,179,0.0,1.0,95,0.00,,,0.01,0,Wunderground v.1.15,2013-10-20 09:24:00,
2013-10-20 05:30:00,37.0,35.7,29.74,South,179,0.0,1.0,95,0.00,,,0.01,0,Wunderground v.1.15,2013-10-20 09:30:00,
2013-10-20 05:36:00,36.8,35.5,29.74,South,179,0.0,1.0,95,0.00,,,0.01,0,Wunderground v.1.15,2013-10-20 09:36:00,
2013-10-20 05:42:00,36.6,35.3,29.73,South,179,0.0,1.0,95,0.00,,,0.01,0,Wunderground v.1.15,2013-10-20 09:42:00,
2013-10-20 05:47:00,36.4,35.1,29.74,South,179,0.0,1.0,95,0.00,,,0.01,0,Wunderground v.1.15,2013-10-20 09:47:00,
2013-10-20 05:53:00,36.2,34.9,29.74,South,179,0.0,1.0,95,0.00,,,0.01,0,Wunderground v.1.15,2013-10-20 09:53:00,
2013-10-20 05:59:00,36.1,34.8,29.74,South,179,0.0,1.0,95,0.00,,,0.01,0,Wunderground v.1.15,2013-10-20 09:59:00,
2013-10-20 06:04:00,35.9,34.6,29.75,South,179,0.0,1.0,95,0.00,,,0.01,0,Wunderground v.1.15,2013-10-20 10:04:00,
2013-10-20 06:10:00,35.8,34.5,29.75,South,179,0.0,1.0,95,0.00,,,0.01,0,Wunderground v.1.15,2013-10-20 10:10:00,
2013-10-20 06:15:00,35.7,34.4,29.74,South,179,0.0,1.0,95,0.00,,,0.01,0,Wunderground v.1.15,2013-10-20 10:15:00,
2013-10-20 06:21:00,35.6,34.3,29.75,South,179,0.0,1.0,95,0.00,,,0.01,0,Wunderground v.1.15,2013-10-20 10:21:00,
2013-10-20 06:27:00,35.5,34.2,29.75,South,179,0.0,1.0,95,0.00,,,0.01,0,Wunderground v.1.15,2013-10-20 10:27:00,
2013-10-20 06:33:00,35.4,34.4,29.74,South,179,0.0,1.0,96,0.00,,,0.01,0,Wunderground v.1.15,2013-10-20 10:33:00,
2013-10-20 06:38:00,35.3,34.3,29.75,South,179,0.0,1.0,96,0.00,,,0.01,0,Wunderground v.1.15,2013-10-20 10:38:00,
2013-10-20 06:44:00,35.2,33.9,29.75,South,179,0.0,1.0,95,0.00,,,0.01,0,Wunderground v.1.15,2013-10-20 10:44:00,
2013-10-20 06:50:00,35.1,33.8,29.75,South,179,0.0,1.0,95,0.00,,,0.01,0,Wunderground v.1.15,2013-10-20 10:50:00,
2013-10-20 06:56:00,35.0,34.0,29.75,South,179,0.0,1.0,96,0.00,,,0.01,0,Wunderground v.1.15,2013-10-20 10:56:00,
2013-10-20 07:02:00,34.9,33.9,29.75,South,179,0.0,1.0,96,0.00,,,0.01,0,Wunderground v.1.15,2013-10-20 11:02:00,
2013-10-20 07:08:00,34.8,33.8,29.75,South,179,0.0,1.0,96,0.00,,,0.01,0,Wunderground v.1.15,2013-10-20 11:08:00,
2013-10-20 07:14:00,34.8,33.8,29.76,South,179,0.0,1.0,96,0.00,,,0.01,0,Wunderground v.1.15,2013-10-20 11:14:00,
2013-10-20 07:20:00,34.8,33.8,29.75,South,179,0.0,1.0,96,0.00,,,0.01,0,Wunderground v.1.15,2013-10-20 11:20:00,
2013-10-20 07:26:00,34.8,33.8,29.76,South,179,0.0,1.0,96,0.00,,,0.01,0,Wunderground v.1.15,2013-10-20 11:26:00,
2013-10-20 07:32:00,34.7,33.7,29.76,South,179,0.0,1.0,96,0.00,,,0.01,0,Wunderground v.1.15,2013-10-20 11:32:00,
2013-10-20 07:38:00,34.7,33.7,29.76,South,179,0.0,1.0,96,0.00,,,0.01,0,Wunderground v.1.15,2013-10-20 11:38:00,
2013-10-20 07:44:00,34.6,33.6,29.76,South,179,0.0,1.0,96,0.00,,,0.01,0,Wunderground v.1.15,2013-10-20 11:44:00,
2013-10-20 07:50:00,34.5,33.5,29.76,South,179,0.0,1.0,96,0.00,,,0.01,0,Wunderground v.1.15,2013-10-20 11:50:00,
2013-10-20 07:56:00,34.4,33.4,29.76,South,179,0.0,1.0,96,0.00,,,0.01,0,Wunderground v.1.15,2013-10-20 11:56:00,
2013-10-20 08:02:00,34.3,33.3,29.76,South,179,0.0,1.0,96,0.00,,,0.01,0,Wunderground v.1.15,2013-10-20 12:02:00,
2013-10-20 08:08:00,34.2,33.2,29.76,South,179,0.0,1.0,96,0.00,,,0.01,0,Wunderground v.1.15,2013-10-20 12:08:00,
2013-10-20 08:13:00,34.2,33.2,29.76,South,179,0.0,1.0,96,0.00,,,0.01,0,Wunderground v.1.15,2013-10-20 12:13:00,
2013-10-20 08:19:00,34.2,33.2,29.77,South,179,0.0,1.0,96,0.00,,,0.01,5,Wunderground v.1.15,2013-10-20 12:19:00,
2013-10-20 08:25:00,34.3,33.3,29.77,South,179,0.0,1.0,96,0.00,,,0.01,5,Wunderground v.1.15,2013-10-20 12:25:00,
2013-10-20 08:31:00,34.3,33.3,29.77,South,179,0.0,1.0,96,0.00,,,0.01,7,Wunderground v.1.15,2013-10-20 12:31:00,
2013-10-20 08:37:00,34.2,33.2,29.78,South,179,0.0,1.0,96,0.00,,,0.01,9,Wunderground v.1.15,2013-10-20 12:37:00,
2013-10-20 08:43:00,34.3,33.3,29.78,South,179,0.0,1.0,96,0.00,,,0.01,9,Wunderground v.1.15,2013-10-20 12:43:00,
2013-10-20 08:49:00,34.4,33.4,29.78,South,179,0.0,1.0,96,0.00,,,0.01,11,Wunderground v.1.15,2013-10-20 12:49:00,
2013-10-20 08:55:00,34.7,33.7,29.78,South,179,0.0,1.0,96,0.00,,,0.01,11,Wunderground v.1.15,2013-10-20 12:55:00,
2013-10-20 09:01:00,35.0,34.2,29.79,South,179,0.0,1.0,97,0.00,,,0.01,12,Wunderground v.1.15,2013-10-20 13:01:00,
2013-10-20 09:07:00,35.3,34.5,29.79,South,179,0.0,1.0,97,0.00,,,0.01,12,Wunderground v.1.15,2013-10-20 13:07:00,
2013-10-20 09:12:00,35.5,34.7,29.79,South,179,0.0,1.0,97,0.00,,,0.01,12,Wunderground v.1.15,2013-10-20 13:12:00,
2013-10-20 09:18:00,35.8,35.0,29.79,South,179,0.0,1.0,97,0.00,,,0.01,12,Wunderground v.1.15,2013-10-20 13:18:00,
2013-10-20 09:24:00,36.1,35.3,29.79,South,179,0.0,1.0,97,0.00,,,0.01,14,Wunderground v.1.15,2013-10-20 13:24:00,
2013-10-20 09:30:00,36.4,35.6,29.79,South,179,0.0,1.0,97,0.00,,,0.01,14,Wunderground v.1.15,2013-10-20 13:30:00,
2013-10-20 09:36:00,36.6,35.8,29.79,South,179,0.0,1.0,97,0.00,,,0.01,14,Wunderground v.1.15,2013-10-20 13:36:00,
2013-10-20 09:42:00,36.9,36.1,29.80,South,179,0.0,1.0,97,0.00,,,0.01,16,Wunderground v.1.15,2013-10-20 13:42:00,
2013-10-20 09:48:00,37.2,36.4,29.80,South,179,0.0,1.0,97,0.00,,,0.01,19,Wunderground v.1.15,2013-10-20 13:48:00,
2013-10-20 09:53:00,37.5,36.7,29.80,South,179,0.0,1.0,97,0.00,,,0.01,18,Wunderground v.1.15,2013-10-20 13:53:00,
2013-10-20 09:59:00,37.8,37.0,29.79,South,179,0.0,1.0,97,0.00,,,0.01,18,Wunderground v.1.15,2013-10-20 13:59:00,
2013-10-20 10:05:00,38.0,37.2,29.80,South,179,0.0,1.0,97,0.00,,,0.01,18,Wunderground v.1.15,2013-10-20 14:05:00,
2013-10-20 10:11:00,38.3,37.8,29.80,South,179,0.0,1.0,98,0.00,,,0.01,19,Wunderground v.1.15,2013-10-20 14:11:00,
2013-10-20 10:17:00,38.6,37.8,29.80,South,179,0.0,1.0,97,0.00,,,0.01,42,Wunderground v.1.15,2013-10-20 14:17:00,
2013-10-20 10:22:00,38.7,38.2,29.80,South,179,0.0,1.0,98,0.00,,,0.01,23,Wunderground v.1.15,2013-10-20 14:22:00,
2013-10-20 10:28:00,39.1,38.3,29.80,South,179,0.0,1.0,97,0.00,,,0.01,21,Wunderground v.1.15,2013-10-20 14:28:00,
2013-10-20 10:34:00,39.4,38.9,29.80,South,179,0.0,1.0,98,0.00,,,0.01,176,Wunderground v.1.15,2013-10-20 14:34:00,
2013-10-20 10:39:00,39.7,39.2,29.80,South,179,0.0,1.0,98,0.00,,,0.01,67,Wunderground v.1.15,2013-10-20 14:39:00,
2013-10-20 10:45:00,40.0,39.5,29.81,South,179,0.0,1.0,98,0.00,,,0.01,60,Wunderground v.1.15,2013-10-20 14:45:00,
2013-10-20 10:50:00,40.4,39.9,29.80,South,179,0.0,1.0,98,0.00,,,0.01,100,Wunderground v.1.15,2013-10-20 14:50:00,
2013-10-20 10:56:00,40.9,40.4,29.81,South,179,0.0,1.0,98,0.00,,,0.01,120,Wunderground v.1.15,2013-10-20 14:56:00,
2013-10-20 11:01:00,41.5,41.0,29.81,South,179,0.0,1.0,98,0.00,,,0.01,123,Wunderground v.1.15,2013-10-20 15:01:00,
2013-10-20 11:07:00,42.1,41.6,29.81,South,179,0.0,1.0,98,0.00,,,0.01,46,Wunderground v.1.15,2013-10-20 15:07:00,
2013-10-20 11:13:00,42.5,42.0,29.81,South,179,0.0,1.0,98,0.00,,,0.01,33,Wunderground v.1.15,2013-10-20 15:13:00,
2013-10-20 11:18:00,42.7,42.2,29.81,South,179,0.0,1.0,98,0.00,,,0.01,33,Wunderground v.1.15,2013-10-20 15:18:00,
2013-10-20 11:24:00,43.0,42.5,29.81,South,179,0.0,1.0,98,0.00,,,0.01,33,Wunderground v.1.15,2013-10-20 15:24:00,
2013-10-20 11:30:00,43.2,42.7,29.81,South,179,0.0,1.0,98,0.00,,,0.01,44,Wunderground v.1.15,2013-10-20 15:30:00,
2013-10-20 11:36:00,43.4,42.9,29.81,South,179,0.0,1.0,98,0.00,,,0.01,111,Wunderground v.1.15,2013-10-20 15:36:00,
2013-10-20 11:42:00,43.7,42.9,29.82,South,179,0.0,1.0,97,0.00,,,0.01,100,Wunderground v.1.15,2013-10-20 15:42:00,
2013-10-20 11:48:00,44.0,43.2,29.82,South,179,0.0,1.0,97,0.00,,,0.01,125,Wunderground v.1.15,2013-10-20 15:48:00,
2013-10-20 11:53:00,44.3,43.5,29.81,South,179,0.0,1.0,97,0.00,,,0.01,88,Wunderground v.1.15,2013-10-20 15:53:00,
2013-10-20 11:59:00,44.5,43.7,29.82,South,179,0.0,1.0,97,0.00,,,0.01,111,Wunderground v.1.15,2013-10-20 15:59:00,
2013-10-20 12:05:00,44.8,44.0,29.82,South,179,0.0,1.0,97,0.00,,,0.01,97,Wunderground v.1.15,2013-10-20 16:05:00,
2013-10-20 12:11:00,45.1,44.0,29.82,South,179,0.0,1.0,96,0.00,,,0.01,104,Wunderground v.1.15,2013-10-20 16:11:00,
2013-10-20 12:17:00,45.4,44.3,29.82,South,179,0.0,1.0,96,0.00,,,0.01,113,Wunderground v.1.15,2013-10-20 16:17:00,
2013-10-20 12:23:00,45.7,44.4,29.82,South,179,0.0,1.0,95,0.00,,,0.01,84,Wunderground v.1.15,2013-10-20 16:23:00,
2013-10-20 12:29:00,46.0,44.4,29.82,South,179,0.0,1.0,94,0.00,,,0.01,151,Wunderground v.1.15,2013-10-20 16:29:00,
2013-10-20 12:34:00,46.4,44.5,29.82,South,179,0.0,1.0,93,0.00,,,0.01,197,Wunderground v.1.15,2013-10-20 16:34:00,
2013-10-20 12:40:00,47.0,45.1,29.81,South,179,0.0,1.0,93,0.00,,,0.01,90,Wunderground v.1.15,2013-10-20 16:40:00,
2013-10-20 12:46:00,47.6,45.4,29.81,South,179,0.0,1.0,92,0.00,,,0.01,84,Wunderground v.1.15,2013-10-20 16:46:00,
2013-10-20 12:51:00,48.0,44.9,29.82,South,179,0.0,1.0,89,0.00,,,0.01,67,Wunderground v.1.15,2013-10-20 16:51:00,
2013-10-20 12:57:00,48.1,44.7,29.81,South,179,0.0,1.0,88,0.00,,,0.01,130,Wunderground v.1.15,2013-10-20 16:57:00,
2013-10-20 13:02:00,48.2,44.5,29.81,South,179,0.0,1.0,87,0.00,,,0.01,105,Wunderground v.1.15,2013-10-20 17:02:00,
2013-10-20 13:07:00,48.3,44.3,29.81,South,179,0.0,1.0,86,0.00,,,0.01,149,Wunderground v.1.15,2013-10-20 17:07:00,
2013-10-20 13:13:00,48.4,44.4,29.81,South,179,0.0,1.0,86,0.00,,,0.01,169,Wunderground v.1.15,2013-10-20 17:13:00,
2013-10-20 13:19:00,48.7,44.7,29.81,NNE,28,0.0,1.0,86,0.00,,,0.01,130,Wunderground v.1.15,2013-10-20 17:19:00,
2013-10-20 13:25:00,49.2,44.9,29.81,NNE,22,0.0,1.0,85,0.00,,,0.01,90,Wunderground v.1.15,2013-10-20 17:25:00,
2013-10-20 13:31:00,49.6,45.0,29.81,NNE,22,0.0,1.0,84,0.00,,,0.01,111,Wunderground v.1.15,2013-10-20 17:31:00,
2013-10-20 13:37:00,49.8,44.5,29.81,ENE,61,0.0,1.0,82,0.00,,,0.01,60,Wunderground v.1.15,2013-10-20 17:37:00,
2013-10-20 13:43:00,49.9,44.0,29.81,ENE,61,0.0,1.0,80,0.00,,,0.01,118,Wunderground v.1.15,2013-10-20 17:43:00,
2013-10-20 13:49:00,50.2,43.9,29.81,WSW,245,0.0,1.0,79,0.00,,,0.01,91,Wunderground v.1.15,2013-10-20 17:49:00,
2013-10-20 13:54:00,50.5,44.2,29.80,East,84,0.0,1.0,79,0.00,,,0.01,58,Wunderground v.1.15,2013-10-20 17:54:00,
2013-10-20 14:00:00,50.3,43.4,29.80,ENE,78,0.0,1.0,77,0.00,,,0.01,95,Wunderground v.1.15,2013-10-20 18:00:00,
2013-10-20 14:06:00,50.1,43.2,29.80,ENE,78,0.0,1.0,77,0.00,,,0.01,149,Wunderground v.1.15,2013-10-20 18:06:00,
2013-10-20 14:12:00,50.3,43.7,29.80,NE,55,0.0,1.0,78,0.00,,,0.01,62,Wunderground v.1.15,2013-10-20 18:12:00,
2013-10-20 14:18:00,50.4,43.5,29.80,NE,55,0.0,1.0,77,0.00,,,0.01,98,Wunderground v.1.15,2013-10-20 18:18:00,
2013-10-20 14:24:00,50.3,43.7,29.79,NNE,28,0.0,1.0,78,0.00,,,0.01,113,Wunderground v.1.15,2013-10-20 18:24:00,
2013-10-20 14:30:00,50.2,43.6,29.79,ESE,123,0.0,1.0,78,0.00,,,0.01,47,Wunderground v.1.15,2013-10-20 18:30:00,
2013-10-20 14:36:00,50.0,43.1,29.79,ESE,122,0.0,1.0,77,0.00,,,0.01,28,Wunderground v.1.15,2013-10-20 18:36:00,
2013-10-20 14:42:00,49.8,43.5,29.79,ESE,122,0.0,1.0,79,0.00,,,0.01,69,Wunderground v.1.15,2013-10-20 18:42:00,
2013-10-20 14:48:00,49.6,43.4,29.79,ENE,67,0.0,1.0,79,0.00,,,0.01,42,Wunderground v.1.15,2013-10-20 18:48:00,
2013-10-20 14:54:00,49.6,43.4,29.79,East,94,0.0,1.0,79,0.00,,,0.01,28,Wunderground v.1.15,2013-10-20 18:54:00,
2013-10-20 14:59:00,49.6,43.0,29.79,East,94,0.0,1.0,78,0.00,,,0.01,40,Wunderground v.1.15,2013-10-20 18:59:00,
2013-10-20 15:05:00,49.6,44.0,29.79,NNW,341,0.0,1.0,81,0.00,,,0.01,39,Wunderground v.1.15,2013-10-20 19:05:00,
2013-10-20 15:11:00,49.1,43.8,29.80,SSE,159,0.0,1.0,82,0.00,,,0.02,141,Wunderground v.1.15,2013-10-20 19:11:00,
2013-10-20 15:17:00,48.7,44.1,29.80,SSE,165,0.0,1.0,84,0.00,,,0.02,158,Wunderground v.1.15,2013-10-20 19:17:00,
2013-10-20 15:22:00,48.5,43.9,29.80,SSW,197,0.0,1.0,84,0.00,,,0.02,121,Wunderground v.1.15,2013-10-20 19:22:00,
2013-10-20 15:28:00,48.3,43.4,29.80,East,79,0.0,1.0,83,0.00,,,0.02,91,Wunderground v.1.15,2013-10-20 19:28:00,
2013-10-20 15:34:00,48.1,43.2,29.80,West,279,0.0,1.0,83,0.00,,,0.02,83,Wunderground v.1.15,2013-10-20 19:34:00,
2013-10-20 15:40:00,48.0,43.1,29.80,NNE,19,0.0,1.0,83,0.00,,,0.02,84,Wunderground v.1.15,2013-10-20 19:40:00,
2013-10-20 15:45:00,47.9,43.0,29.80,NNE,20,0.0,1.0,83,0.00,,,0.02,102,Wunderground v.1.15,2013-10-20 19:45:00,
2013-10-20 15:51:00,48.0,43.1,29.80,NW,314,0.0,1.0,83,0.00,,,0.02,123,Wunderground v.1.15,2013-10-20 19:51:00,
2013-10-20 15:57:00,48.2,42.6,29.80,SSW,203,0.0,1.0,81,0.00,,,0.02,125,Wunderground v.1.15,2013-10-20 19:57:00,
2013-10-20 16:02:00,48.4,42.8,29.80,North,351,0.0,1.0,81,0.00,,,0.02,116,Wunderground v.1.15,2013-10-20 20:02:00,
2013-10-20 16:08:00,48.6,43.0,29.80,NNE,13,0.0,1.0,81,0.00,,,0.02,118,Wunderground v.1.15,2013-10-20 20:08:00,
2013-10-20 16:13:00,48.8,43.2,29.80,SSW,204,0.0,4.0,81,0.00,,,0.02,142,Wunderground v.1.15,2013-10-20 20:13:00,
2013-10-20 16:19:00,49.1,42.9,29.80,SSW,212,0.0,4.0,79,0.00,,,0.02,132,Wunderground v.1.15,2013-10-20 20:19:00,
2013-10-20 16:24:00,49.4,42.8,29.80,WNW,292,0.0,1.0,78,0.00,,,0.02,62,Wunderground v.1.15,2013-10-20 20:24:00,
2013-10-20 16:30:00,49.6,43.0,29.80,NNE,14,0.0,1.0,78,0.00,,,0.02,62,Wunderground v.1.15,2013-10-20 20:30:00,
2013-10-20 16:36:00,49.5,42.2,29.80,North,355,0.0,1.0,76,0.00,,,0.02,70,Wunderground v.1.15,2013-10-20 20:36:00,
2013-10-20 16:42:00,49.4,42.5,29.80,NE,36,0.0,1.0,77,0.00,,,0.02,58,Wunderground v.1.15,2013-10-20 20:42:00,
2013-10-20 16:47:00,49.3,42.7,29.80,NE,35,0.0,1.0,78,0.00,,,0.02,67,Wunderground v.1.15,2013-10-20 20:47:00,
2013-10-20 16:53:00,49.2,43.0,29.80,NE,35,0.0,1.0,79,0.00,,,0.02,100,Wunderground v.1.15,2013-10-20 20:53:00,
2013-10-20 16:59:00,49.3,43.1,29.80,South,180,0.0,1.0,79,0.00,,,0.02,113,Wunderground v.1.15,2013-10-20 20:59:00,
2013-10-20 17:05:00,49.4,43.5,29.80,South,179,0.0,5.0,80,0.00,,,0.02,79,Wunderground v.1.15,2013-10-20 21:05:00,
2013-10-20 17:10:00,49.4,43.5,29.80,South,179,0.0,1.0,80,0.00,,,0.02,69,Wunderground v.1.15,2013-10-20 21:10:00,
2013-10-20 17:16:00,49.5,43.3,29.80,NNE,27,0.0,1.0,79,0.00,,,0.02,76,Wunderground v.1.15,2013-10-20 21:16:00,
2013-10-20 17:22:00,49.6,43.7,29.80,SSE,165,0.0,1.0,80,0.00,,,0.02,65,Wunderground v.1.15,2013-10-20 21:22:00,
2013-10-20 17:28:00,49.5,43.6,29.80,SSE,167,0.0,4.0,80,0.00,,,0.02,44,Wunderground v.1.15,2013-10-20 21:28:00,
2013-10-20 17:33:00,49.4,43.5,29.81,SSE,167,0.0,1.0,80,0.00,,,0.02,35,Wunderground v.1.15,2013-10-20 21:33:00,
2013-10-20 17:39:00,49.2,43.3,29.80,SSE,167,0.0,1.0,80,0.00,,,0.02,25,Wunderground v.1.15,2013-10-20 21:39:00,
2013-10-20 17:45:00,49.1,42.5,29.80,NW,304,0.0,1.0,78,0.00,,,0.02,21,Wunderground v.1.15,2013-10-20 21:45:00,
2013-10-20 17:50:00,48.9,42.0,29.80,NW,304,0.0,1.0,77,0.00,,,0.02,23,Wunderground v.1.15,2013-10-20 21:50:00,
2013-10-20 17:56:00,48.7,41.8,29.80,NW,304,0.0,1.0,77,0.00,,,0.02,21,Wunderground v.1.15,2013-10-20 21:56:00,
2013-10-20 18:02:00,48.6,41.4,29.80,NW,304,0.0,1.0,76,0.00,,,0.02,16,Wunderground v.1.15,2013-10-20 22:02:00,
2013-10-20 18:08:00,48.5,41.3,29.81,NW,304,0.0,1.0,76,0.00,,,0.02,14,Wunderground v.1.15,2013-10-20 22:08:00,
2013-10-20 18:13:00,48.4,41.2,29.80,NW,304,0.0,1.0,76,0.00,,,0.02,14,Wunderground v.1.15,2013-10-20 22:13:00,
2013-10-20 18:19:00,48.3,41.4,29.80,NW,304,0.0,1.0,77,0.00,,,0.02,11,Wunderground v.1.15,2013-10-20 22:19:00,
2013-10-20 18:25:00,48.2,41.3,29.80,NW,304,0.0,1.0,77,0.00,,,0.02,7,Wunderground v.1.15,2013-10-20 22:25:00,
2013-10-20 18:30:00,48.1,41.2,29.80,NW,304,0.0,1.0,77,0.00,,,0.02,5,Wunderground v.1.15,2013-10-20 22:30:00,
2013-10-20 18:36:00,47.9,41.0,29.80,NW,304,0.0,1.0,77,0.00,,,0.02,0,Wunderground v.1.15,2013-10-20 22:36:00,
2013-10-20 18:41:00,47.8,40.6,29.80,NW,304,0.0,1.0,76,0.00,,,0.02,0,Wunderground v.1.15,2013-10-20 22:41:00,
2013-10-20 18:47:00,47.6,40.4,29.80,NW,304,0.0,1.0,76,0.00,,,0.02,0,Wunderground v.1.15,2013-10-20 22:47:00,
2013-10-20 18:53:00,47.4,40.2,29.80,NW,304,0.0,1.0,76,0.00,,,0.02,0,Wunderground v.1.15,2013-10-20 22:53:00,
2013-10-20 18:58:00,47.2,40.0,29.80,NW,304,0.0,1.0,76,0.00,,,0.02,0,Wunderground v.1.15,2013-10-20 22:58:00,
2013-10-20 19:04:00,47.0,39.8,29.80,NW,304,0.0,1.0,76,0.00,,,0.02,0,Wunderground v.1.15,2013-10-20 23:04:00,
2013-10-20 19:10:00,46.7,39.9,29.80,NW,304,0.0,1.0,77,0.00,,,0.02,0,Wunderground v.1.15,2013-10-20 23:10:00,
2013-10-20 19:16:00,46.6,39.8,29.80,NW,304,0.0,1.0,77,0.00,,,0.02,0,Wunderground v.1.15,2013-10-20 23:16:00,
2013-10-20 19:21:00,46.4,39.6,29.80,NW,304,0.0,1.0,77,0.00,,,0.02,0,Wunderground v.1.15,2013-10-20 23:21:00,
2013-10-20 19:27:00,46.2,39.7,29.81,NW,304,0.0,1.0,78,0.00,,,0.02,0,Wunderground v.1.15,2013-10-20 23:27:00,
2013-10-20 19:32:00,46.0,39.9,29.81,NW,304,0.0,1.0,79,0.00,,,0.02,0,Wunderground v.1.15,2013-10-20 23:32:00,
2013-10-20 19:38:00,45.8,40.0,29.80,NW,304,0.0,1.0,80,0.00,,,0.02,0,Wunderground v.1.15,2013-10-20 23:38:00,
2013-10-20 19:43:00,45.5,40.0,29.80,NW,304,0.0,1.0,81,0.00,,,0.02,0,Wunderground v.1.15,2013-10-20 23:43:00,
2013-10-20 19:49:00,45.2,39.7,29.80,NW,304,0.0,1.0,81,0.00,,,0.02,0,Wunderground v.1.15,2013-10-20 23:49:00,
2013-10-20 19:55:00,45.0,39.8,29.80,NW,304,0.0,1.0,82,0.00,,,0.02,0,Wunderground v.1.15,2013-10-20 23:55:00,
2013-10-20 20:00:00,44.7,39.9,29.80,NW,304,0.0,1.0,83,0.00,,,0.02,0,Wunderground v.1.15,2013-10-21 00:00:00,
2013-10-20 20:06:00,44.6,39.8,29.80,NW,304,0.0,1.0,83,0.00,,,0.02,0,Wunderground v.1.15,2013-10-21 00:06:00,
2013-10-20 20:11:00,44.4,39.9,29.80,NW,304,0.0,1.0,84,0.00,,,0.02,0,Wunderground v.1.15,2013-10-21 00:11:00,
2013-10-20 20:17:00,44.3,39.8,29.81,NW,304,0.0,1.0,84,0.00,,,0.02,0,Wunderground v.1.15,2013-10-21 00:17:00,
2013-10-20 20:23:00,44.2,40.0,29.80,NW,304,0.0,1.0,85,0.00,,,0.02,0,Wunderground v.1.15,2013-10-21 00:23:00,
2013-10-20 20:28:00,44.2,40.0,29.80,NW,304,0.0,1.0,85,0.00,,,0.02,0,Wunderground v.1.15,2013-10-21 00:28:00,
2013-10-20 20:34:00,44.1,40.2,29.80,NW,304,0.0,1.0,86,0.00,,,0.02,0,Wunderground v.1.15,2013-10-21 00:34:00,
2013-10-20 20:39:00,44.1,40.2,29.80,NW,304,0.0,1.0,86,0.00,,,0.02,0,Wunderground v.1.15,2013-10-21 00:39:00,
2013-10-20 20:45:00,44.3,40.7,29.80,NW,304,0.0,1.0,87,0.00,,,0.02,0,Wunderground v.1.15,2013-10-21 00:45:00,
2013-10-20 20:51:00,44.5,41.2,29.80,NW,304,0.0,1.0,88,0.00,,,0.02,0,Wunderground v.1.15,2013-10-21 00:51:00,
2013-10-20 20:57:00,44.8,41.5,29.80,NW,304,0.0,1.0,88,0.00,,,0.02,0,Wunderground v.1.15,2013-10-21 00:57:00,
2013-10-20 21:02:00,45.0,41.7,29.79,NW,304,0.0,1.0,88,0.00,,,0.02,0,Wunderground v.1.15,2013-10-21 01:02:00,
2013-10-20 21:08:00,45.1,42.1,29.79,NW,304,0.0,1.0,89,0.00,,,0.02,0,Wunderground v.1.15,2013-10-21 01:08:00,
2013-10-20 21:13:00,45.2,42.2,29.79,NW,304,0.0,1.0,89,0.00,,,0.02,0,Wunderground v.1.15,2013-10-21 01:13:00,
2013-10-20 21:19:00,45.3,42.2,29.79,NW,304,0.0,1.0,89,0.00,,,0.02,0,Wunderground v.1.15,2013-10-21 01:19:00,
2013-10-20 21:24:00,45.4,42.3,29.79,NW,304,0.0,1.0,89,0.00,,,0.02,0,Wunderground v.1.15,2013-10-21 01:24:00,
2013-10-20 21:30:00,45.4,42.3,29.79,NW,304,0.0,1.0,89,0.00,,,0.02,0,Wunderground v.1.15,2013-10-21 01:30:00,
2013-10-20 21:35:00,45.4,42.3,29.79,NW,304,0.0,1.0,89,0.00,,,0.02,0,Wunderground v.1.15,2013-10-21 01:35:00,
2013-10-20 21:41:00,45.4,42.3,29.79,NW,304,0.0,1.0,89,0.00,,,0.02,0,Wunderground v.1.15,2013-10-21 01:41:00,
2013-10-20 21:47:00,45.4,42.3,29.79,NW,304,0.0,1.0,89,0.00,,,0.02,0,Wunderground v.1.15,2013-10-21 01:47:00,
2013-10-20 21:53:00,45.4,42.3,29.79,NW,304,0.0,1.0,89,0.00,,,0.02,0,Wunderground v.1.15,2013-10-21 01:53:00,
2013-10-20 21:58:00,45.4,42.6,29.78,NW,304,0.0,1.0,90,0.00,,,0.02,0,Wunderground v.1.15,2013-10-21 01:58:00,
2013-10-20 22:04:00,45.4,42.6,29.78,NW,304,0.0,1.0,90,0.00,,,0.02,0,Wunderground v.1.15,2013-10-21 02:04:00,
2013-10-20 22:10:00,45.4,42.6,29.78,NW,304,0.0,1.0,90,0.00,,,0.02,0,Wunderground v.1.15,2013-10-21 02:10:00,
2013-10-20 22:15:00,45.5,42.7,29.78,NW,304,0.0,1.0,90,0.00,,,0.02,0,Wunderground v.1.15,2013-10-21 02:15:00,
2013-10-20 22:21:00,45.4,42.6,29.78,NW,304,0.0,1.0,90,0.00,,,0.02,0,Wunderground v.1.15,2013-10-21 02:21:00,
2013-10-20 22:27:00,45.5,42.7,29.78,NW,304,0.0,1.0,90,0.00,,,0.02,0,Wunderground v.1.15,2013-10-21 02:27:00,
2013-10-20 22:33:00,45.5,42.7,29.78,NW,304,0.0,1.0,90,0.00,,,0.02,0,Wunderground v.1.15,2013-10-21 02:33:00,
2013-10-20 22:38:00,45.5,42.7,29.78,NW,304,0.0,1.0,90,0.00,,,0.02,0,Wunderground v.1.15,2013-10-21 02:38:00,
2013-10-20 22:44:00,45.5,43.0,29.78,NW,304,0.0,1.0,91,0.00,,,0.02,0,Wunderground v.1.15,2013-10-21 02:44:00,
2013-10-20 22:50:00,45.4,42.9,29.78,NW,304,0.0,1.0,91,0.00,,,0.03,0,Wunderground v.1.15,2013-10-21 02:50:00,
2013-10-20 22:56:00,45.4,42.9,29.78,NW,304,0.0,1.0,91,0.00,,,0.03,0,Wunderground v.1.15,2013-10-21 02:56:00,
2013-10-20 23:02:00,45.4,42.9,29.77,NW,304,0.0,1.0,91,0.00,,,0.03,0,Wunderground v.1.15,2013-10-21 03:02:00,
2013-10-20 23:08:00,45.4,42.9,29.77,NW,304,0.0,1.0,91,0.00,,,0.03,0,Wunderground v.1.15,2013-10-21 03:08:00,
2013-10-20 23:14:00,45.2,42.7,29.77,NW,304,0.0,1.0,91,0.00,,,0.03,0,Wunderground v.1.15,2013-10-21 03:14:00,
2013-10-20 23:19:00,45.1,42.3,29.77,NW,304,0.0,1.0,90,0.00,,,0.03,0,Wunderground v.1.15,2013-10-21 03:19:00,
2013-10-20 23:25:00,44.9,42.1,29.76,NW,304,0.0,1.0,90,0.00,,,0.03,0,Wunderground v.1.15,2013-10-21 03:25:00,
2013-10-20 23:31:00,44.8,42.0,29.76,NW,304,0.0,1.0,90,0.00,,,0.03,0,Wunderground v.1.15,2013-10-21 03:31:00,
2013-10-20 23:37:00,44.7,41.9,29.76,NW,304,0.0,1.0,90,0.00,,,0.03,0,Wunderground v.1.15,2013-10-21 03:37:00,
2013-10-20 23:43:00,44.6,41.6,29.76,NNW,336,0.0,1.0,89,0.00,,,0.03,0,Wunderground v.1.15,2013-10-21 03:43:00,
2013-10-20 23:49:00,44.4,41.4,29.75,NNW,336,0.0,1.0,89,0.00,,,0.03,0,Wunderground v.1.15,2013-10-21 03:49:00,
2013-10-20 23:55:00,44.3,41.6,29.75,NNW,336,0.0,1.0,90,0.00,,,0.03,0,Wunderground v.1.15,2013-10-21 03:55:00,